createdAt,value
2018-08-23T00:00:45.941Z,59.79
2018-08-23T00:03:19.740Z,59.83
2018-08-23T00:05:53.547Z,59.80
2018-08-23T00:08:22.866Z,60.47
2018-08-23T00:10:52.067Z,60.23
2018-08-23T00:13:21.144Z,60.51
2018-08-23T00:15:49.817Z,60.18
2018-08-23T00:18:18.429Z,60.42
2018-08-23T00:20:47.027Z,60.74
2018-08-23T00:23:15.697Z,60.59
2018-08-23T00:25:44.274Z,60.79
2018-08-23T00:28:13.210Z,61.29
2018-08-23T00:30:44.047Z,61.59
2018-08-23T00:33:12.717Z,62.41
2018-08-23T00:35:41.297Z,62.00
2018-08-23T00:38:09.953Z,61.31
2018-08-23T00:40:40.410Z,62.02
2018-08-23T00:43:10.092Z,61.89
2018-08-23T00:45:38.655Z,62.38
2018-08-23T00:48:07.386Z,62.64
2018-08-23T00:50:53.963Z,61.81
2018-08-23T00:53:22.562Z,62.30
2018-08-23T00:56:02.884Z,62.85
2018-08-23T00:58:31.436Z,63.38
2018-08-23T01:01:03.146Z,63.15
2018-08-23T01:03:32.383Z,63.53
2018-08-23T01:06:00.962Z,64.36
2018-08-23T01:08:34.045Z,64.44
2018-08-23T01:11:03.585Z,64.53
2018-08-23T01:13:32.190Z,64.71
2018-08-23T01:16:01.031Z,64.27
2018-08-23T01:18:29.656Z,64.61
2018-08-23T01:20:58.290Z,64.96
2018-08-23T01:23:26.878Z,64.79
2018-08-23T01:25:55.494Z,64.81
2018-08-23T01:28:24.180Z,65.41
2018-08-23T01:30:52.796Z,65.36
2018-08-23T01:33:22.381Z,65.05
2018-08-23T01:35:51.828Z,64.96
2018-08-23T01:38:20.454Z,65.48
2018-08-23T01:40:49.509Z,65.98
2018-08-23T01:43:18.225Z,65.71
2018-08-23T01:45:46.831Z,66.61
2018-08-23T01:48:15.407Z,67.03
2018-08-23T01:50:44.005Z,67.31
2018-08-23T01:53:12.627Z,66.73
2018-08-23T01:55:41.205Z,67.66
2018-08-23T01:58:09.805Z,67.43
2018-08-23T02:00:38.382Z,67.61
2018-08-23T02:03:06.988Z,67.99
2018-08-23T02:05:37.866Z,67.87
2018-08-23T02:08:06.518Z,67.92
2018-08-23T02:10:35.141Z,68.36
2018-08-23T02:13:03.799Z,68.24
2018-08-23T02:15:40.686Z,68.10
2018-08-23T02:18:09.288Z,68.11
2018-08-23T02:20:37.883Z,67.83
2018-08-23T02:23:07.807Z,67.70
2018-08-23T02:25:36.376Z,68.32
2018-08-23T02:30:49.436Z,69.35
2018-08-23T02:33:18.203Z,69.53
2018-08-23T02:36:04.758Z,69.70
2018-08-23T02:38:34.021Z,69.91
2018-08-23T02:41:02.594Z,70.37
2018-08-23T02:43:31.191Z,70.28
2018-08-23T02:46:02.435Z,70.15
2018-08-23T02:48:31.029Z,71.07
2018-08-23T02:50:59.637Z,71.13
2018-08-23T02:53:35.463Z,71.20
2018-08-23T02:56:14.611Z,71.54
2018-08-23T02:58:57.133Z,71.24
2018-08-23T03:01:27.174Z,71.35
2018-08-23T03:04:08.326Z,71.90
2018-08-23T03:06:44.209Z,72.51
2018-08-23T03:09:12.863Z,72.19
2018-08-23T03:11:41.420Z,71.84
2018-08-23T03:14:10.055Z,72.26
2018-08-23T03:16:51.114Z,71.97
2018-08-23T03:19:19.762Z,71.24
2018-08-23T03:21:53.606Z,71.12
2018-08-23T03:24:22.227Z,70.34
2018-08-23T03:26:51.037Z,70.48
2018-08-23T03:29:19.903Z,70.58
2018-08-23T03:31:48.453Z,70.09
2018-08-23T03:34:17.168Z,70.17
2018-08-23T03:36:45.779Z,69.71
2018-08-23T03:39:14.382Z,69.90
2018-08-23T03:41:42.974Z,69.96
2018-08-23T03:44:24.666Z,70.35
2018-08-23T03:46:54.218Z,69.55
2018-08-23T03:49:33.094Z,69.65
2018-08-23T03:52:01.717Z,69.84
2018-08-23T03:54:31.201Z,69.57
2018-08-23T03:57:16.226Z,70.14
2018-08-23T03:59:47.842Z,69.93
2018-08-23T04:02:17.551Z,69.63
2018-08-23T04:04:56.742Z,69.45
2018-08-23T04:07:25.305Z,69.19
2018-08-23T04:09:53.862Z,69.22
2018-08-23T04:12:22.541Z,68.95
2018-08-23T04:14:51.152Z,68.95
2018-08-23T04:17:19.737Z,68.81
2018-08-23T04:19:49.533Z,68.54
2018-08-23T04:22:18.425Z,68.17
2018-08-23T04:24:55.032Z,67.64
2018-08-23T04:27:23.657Z,67.41
2018-08-23T04:29:52.248Z,66.73
2018-08-23T04:32:29.217Z,66.71
2018-08-23T04:35:00.542Z,66.91
2018-08-23T04:37:30.071Z,66.47
2018-08-23T04:40:03.867Z,66.35
2018-08-23T04:42:32.638Z,66.42
2018-08-23T04:45:26.610Z,65.70
2018-08-23T04:48:00.721Z,65.42
2018-08-23T04:50:29.307Z,65.24
2018-08-23T04:52:57.916Z,64.59
2018-08-23T04:55:27.115Z,64.18
2018-08-23T04:57:56.708Z,64.34
2018-08-23T05:00:25.834Z,64.00
2018-08-23T05:02:54.420Z,63.15
2018-08-23T05:05:23.071Z,62.91
2018-08-23T05:07:51.662Z,62.62
2018-08-23T05:10:20.331Z,61.90
2018-08-23T05:12:50.544Z,61.79
2018-08-23T05:15:19.184Z,61.40
2018-08-23T05:17:47.863Z,61.09
2018-08-23T05:20:16.558Z,60.72
2018-08-23T05:22:52.910Z,60.91
2018-08-23T05:25:23.377Z,60.13
2018-08-23T05:28:07.270Z,60.06
2018-08-23T05:30:35.897Z,60.42
2018-08-23T05:33:09.530Z,60.13
2018-08-23T05:35:38.092Z,59.94
2018-08-23T05:38:07.989Z,59.31
2018-08-23T05:40:42.268Z,59.57
2018-08-23T05:43:11.317Z,59.85
2018-08-23T05:45:45.158Z,59.43
2018-08-23T05:48:21.687Z,58.76
2018-08-23T05:50:50.368Z,58.36
2018-08-23T05:53:19.776Z,58.21
2018-08-23T05:55:53.481Z,57.36
2018-08-23T05:58:25.207Z,56.88
2018-08-23T06:00:53.936Z,56.67
2018-08-23T06:03:22.496Z,56.60
2018-08-23T06:05:51.594Z,56.75
2018-08-23T06:08:20.315Z,54.53
2018-08-23T06:10:50.800Z,54.27
2018-08-23T06:13:19.927Z,53.36
2018-08-23T06:15:54.772Z,53.41
2018-08-23T06:18:23.993Z,53.04
2018-08-23T06:20:52.633Z,52.43
2018-08-23T06:23:21.668Z,52.17
2018-08-23T06:25:50.627Z,52.16
2018-08-23T06:28:26.337Z,52.96
2018-08-23T06:30:58.936Z,52.92
2018-08-23T06:33:38.650Z,53.04
2018-08-23T06:36:08.330Z,52.51
2018-08-23T06:38:37.936Z,52.69
2018-08-23T06:41:07.701Z,52.74
2018-08-23T06:43:36.407Z,52.96
2018-08-23T06:46:05.555Z,53.15
2018-08-23T06:48:34.257Z,53.21
2018-08-23T06:51:03.907Z,52.78
2018-08-23T06:53:46.655Z,53.12
2018-08-23T06:56:16.561Z,53.47
2018-08-23T06:58:45.275Z,52.88
2018-08-23T07:01:30.126Z,52.40
2018-08-23T07:04:03.801Z,51.96
2018-08-23T07:06:32.894Z,52.04
2018-08-23T07:09:01.932Z,51.71
2018-08-23T07:11:30.675Z,51.86
2018-08-23T07:14:31.011Z,51.63
2018-08-23T07:17:09.531Z,51.51
2018-08-23T07:19:38.107Z,51.01
2018-08-23T07:22:06.926Z,50.59
2018-08-23T07:24:44.766Z,50.75
2018-08-23T07:27:14.758Z,49.76
2018-08-23T07:29:54.872Z,49.84
2018-08-23T07:32:24.868Z,49.61
2018-08-23T07:35:06.105Z,49.19
2018-08-23T07:37:36.602Z,48.71
2018-08-23T07:40:11.348Z,48.56
2018-08-23T07:42:41.230Z,48.61
2018-08-23T07:45:10.473Z,48.60
2018-08-23T07:47:40.773Z,47.61
2018-08-23T07:50:09.400Z,47.24
2018-08-23T07:52:38.825Z,46.72
2018-08-23T07:55:07.940Z,47.44
2018-08-23T07:57:37.259Z,46.36
2018-08-23T08:00:25.593Z,46.93
2018-08-23T08:02:54.374Z,46.49
2018-08-23T08:05:25.314Z,46.17
2018-08-23T08:07:53.934Z,45.67
2018-08-23T08:10:22.561Z,46.43
2018-08-23T08:12:52.037Z,46.20
2018-08-23T08:15:20.789Z,45.67
2018-08-23T08:17:49.357Z,45.22
2018-08-23T08:20:18.018Z,45.48
2018-08-23T08:22:46.635Z,44.54
2018-08-23T08:25:17.142Z,44.25
2018-08-23T08:27:45.958Z,44.45
2018-08-23T08:30:15.849Z,43.67
2018-08-23T08:32:44.945Z,44.11
2018-08-23T08:35:16.430Z,44.02
2018-08-23T08:37:46.112Z,43.95
2018-08-23T08:40:18.865Z,43.30
2018-08-23T08:42:48.035Z,43.27
2018-08-23T08:45:16.687Z,43.13
2018-08-23T08:47:46.430Z,42.95
2018-08-23T08:50:15.417Z,42.74
2018-08-23T08:52:44.066Z,41.86
2018-08-23T08:55:14.134Z,41.85
2018-08-23T08:57:44.922Z,42.48
2018-08-23T09:00:13.569Z,42.25
2018-08-23T09:02:42.307Z,41.60
2018-08-23T09:05:11.967Z,41.57
2018-08-23T09:07:42.627Z,42.08
2018-08-23T09:10:11.244Z,42.08
2018-08-23T09:12:44.945Z,41.31
2018-08-23T09:15:13.539Z,40.58
2018-08-23T09:17:44.340Z,39.34
2018-08-23T09:20:15.283Z,39.81
2018-08-23T09:22:49.046Z,40.00
2018-08-23T09:25:26.591Z,39.91
2018-08-23T09:27:55.229Z,40.24
2018-08-23T09:30:26.030Z,39.66
2018-08-23T09:32:55.005Z,39.69
2018-08-23T09:35:30.981Z,39.59
2018-08-23T09:38:03.448Z,39.63
2018-08-23T09:40:32.044Z,39.03
2018-08-23T09:43:03.198Z,38.92
2018-08-23T09:45:33.192Z,38.90
2018-08-23T09:48:01.849Z,38.85
2018-08-23T09:50:30.481Z,38.65
2018-08-23T09:52:59.161Z,38.17
2018-08-23T09:55:29.718Z,38.03
2018-08-23T09:57:58.838Z,37.81
2018-08-23T10:00:32.540Z,37.42
2018-08-23T10:03:06.235Z,37.51
2018-08-23T10:05:44.294Z,37.98
2018-08-23T10:08:18.010Z,37.36
2018-08-23T10:12:54.485Z,36.39
2018-08-23T10:15:28.416Z,36.97
2018-08-23T10:18:02.112Z,36.54
2018-08-23T10:20:35.960Z,35.78
2018-08-23T10:23:09.690Z,35.28
2018-08-23T10:25:42.070Z,34.46
2018-08-23T10:28:11.986Z,34.21
2018-08-23T10:30:40.804Z,34.00
2018-08-23T10:33:09.438Z,34.62
2018-08-23T10:35:38.655Z,33.83
2018-08-23T10:38:08.012Z,33.14
2018-08-23T10:40:36.663Z,33.13
2018-08-23T10:43:05.335Z,33.05
2018-08-23T10:45:33.948Z,33.33
2018-08-23T10:48:07.590Z,32.59
2018-08-23T10:50:41.573Z,32.65
2018-08-23T10:53:10.272Z,32.34
2018-08-23T10:55:38.910Z,31.75
2018-08-23T10:58:07.614Z,31.66
2018-08-23T11:00:36.284Z,31.64
2018-08-23T11:03:04.956Z,30.85
2018-08-23T11:05:33.603Z,30.90
2018-08-23T11:08:07.284Z,30.53
2018-08-23T11:10:41.030Z,31.45
2018-08-23T11:13:14.934Z,32.06
2018-08-23T11:15:43.597Z,30.60
2018-08-23T11:18:17.280Z,30.48
2018-08-23T11:20:47.994Z,29.74
2018-08-23T11:23:18.699Z,29.07
2018-08-23T11:25:47.352Z,29.63
2018-08-23T11:28:21.525Z,29.68
2018-08-23T11:30:50.724Z,29.75
2018-08-23T11:33:19.343Z,29.71
2018-08-23T11:35:47.967Z,29.93
2018-08-23T11:38:16.609Z,29.28
2018-08-23T11:40:45.215Z,29.93
2018-08-23T11:43:13.839Z,29.75
2018-08-23T11:45:42.442Z,28.98
2018-08-23T11:48:11.072Z,29.21
2018-08-23T11:50:39.776Z,29.25
2018-08-23T11:53:09.120Z,28.80
2018-08-23T11:55:37.885Z,29.01
2018-08-23T11:58:06.588Z,28.65
2018-08-23T12:00:35.986Z,28.59
2018-08-23T12:03:04.818Z,28.87
2018-08-23T12:05:33.594Z,27.97
2018-08-23T12:08:02.279Z,28.35
2018-08-23T12:10:32.011Z,27.63
2018-08-23T12:13:01.644Z,28.25
2018-08-23T12:15:31.880Z,28.33
2018-08-23T12:18:01.479Z,28.01
2018-08-23T12:20:30.297Z,27.44
2018-08-23T12:22:59.173Z,27.19
2018-08-23T12:25:27.909Z,25.76
2018-08-23T12:28:00.347Z,25.76
2018-08-23T12:30:30.274Z,25.49
2018-08-23T12:32:59.012Z,25.72
2018-08-23T12:35:27.874Z,25.76
2018-08-23T12:38:02.492Z,25.05
2018-08-23T12:40:37.152Z,24.54
2018-08-23T12:43:09.177Z,25.10
2018-08-23T12:45:41.085Z,24.86
2018-08-23T12:48:11.242Z,23.65
2018-08-23T12:50:40.468Z,22.38
2018-08-23T12:53:09.230Z,22.52
2018-08-23T12:55:38.030Z,22.16
2018-08-23T12:58:10.500Z,21.83
2018-08-23T13:00:40.266Z,21.56
2018-08-23T13:03:09.449Z,21.45
2018-08-23T13:05:38.561Z,21.60
2018-08-23T13:08:07.607Z,22.03
2018-08-23T13:10:36.864Z,21.20
2018-08-23T13:13:05.700Z,21.04
2018-08-23T13:15:34.461Z,20.96
2018-08-23T13:18:03.624Z,21.83
2018-08-23T13:20:32.516Z,21.28
2018-08-23T13:23:01.239Z,20.81
2018-08-23T13:25:29.971Z,19.72
2018-08-23T13:27:58.774Z,20.08
2018-08-23T13:30:27.513Z,21.33
2018-08-23T13:32:56.269Z,21.37
2018-08-23T13:35:25.756Z,21.43
2018-08-23T13:37:54.513Z,19.81
2018-08-23T13:40:23.229Z,19.58
2018-08-23T13:42:51.914Z,19.15
2018-08-23T13:45:20.624Z,19.02
2018-08-23T13:47:49.269Z,18.27
2018-08-23T13:50:17.905Z,18.51
2018-08-23T13:52:46.611Z,18.95
2018-08-23T13:55:15.391Z,18.40
2018-08-23T13:57:44.211Z,17.62
2018-08-23T14:00:18.334Z,18.26
2018-08-23T14:02:47.295Z,17.13
2018-08-23T14:05:16.312Z,17.63
2018-08-23T14:07:45.375Z,17.97
2018-08-23T14:10:14.604Z,17.02
2018-08-23T14:12:43.532Z,16.47
2018-08-23T14:15:17.620Z,16.29
2018-08-23T14:17:46.307Z,15.29
2018-08-23T14:20:14.983Z,14.49
2018-08-23T14:22:43.718Z,14.40
2018-08-23T14:25:14.982Z,14.60
2018-08-23T14:27:44.670Z,14.39
2018-08-23T14:30:13.362Z,13.55
2018-08-23T14:32:42.171Z,13.31
2018-08-23T14:37:47.509Z,14.23
2018-08-23T14:40:16.438Z,14.02
2018-08-23T14:42:45.166Z,13.96
2018-08-23T14:45:18.075Z,13.39
2018-08-23T14:48:18.831Z,13.18
2018-08-23T14:50:52.810Z,14.46
2018-08-23T14:53:26.840Z,14.07
2018-08-23T14:56:01.175Z,14.04
2018-08-23T14:58:30.439Z,14.40
2018-08-23T15:00:59.771Z,13.79
2018-08-23T15:03:29.864Z,13.24
2018-08-23T15:05:58.630Z,13.89
2018-08-23T15:08:27.389Z,14.08
2018-08-23T15:10:56.173Z,13.31
2018-08-23T15:13:24.856Z,13.27
2018-08-23T15:15:54.099Z,13.27
2018-08-23T15:18:23.375Z,13.02
2018-08-23T15:20:53.298Z,12.12
2018-08-23T15:23:22.054Z,12.48
2018-08-23T15:25:50.790Z,11.97
2018-08-23T15:28:19.399Z,12.13
2018-08-23T15:30:48.044Z,12.90
2018-08-23T15:33:16.666Z,12.66
2018-08-23T15:35:45.277Z,13.05
2018-08-23T15:38:13.889Z,12.37
2018-08-23T15:40:42.445Z,11.64
2018-08-23T15:43:11.096Z,12.47
2018-08-23T15:45:39.718Z,12.38
2018-08-23T15:48:08.403Z,12.02
2018-08-23T15:50:37.078Z,12.19
2018-08-23T15:53:05.955Z,12.23
2018-08-23T15:55:34.895Z,11.66
2018-08-23T15:58:03.393Z,11.52
2018-08-23T16:00:41.028Z,12.09
2018-08-23T16:03:09.882Z,11.94
2018-08-23T16:05:39.559Z,11.89
2018-08-23T16:08:08.236Z,12.10
2018-08-23T16:10:36.889Z,12.57
2018-08-23T16:13:05.711Z,12.16
2018-08-23T16:15:34.348Z,12.21
2018-08-23T16:18:08.421Z,12.80
2018-08-23T16:20:42.254Z,12.82
2018-08-23T16:23:10.903Z,13.24
2018-08-23T16:25:43.689Z,13.75
2018-08-23T16:28:12.550Z,13.59
2018-08-23T16:30:42.442Z,13.23
2018-08-23T16:33:11.626Z,13.14
2018-08-23T16:35:40.579Z,13.76
2018-08-23T16:38:12.466Z,14.15
2018-08-23T16:40:41.085Z,14.85
2018-08-23T16:43:09.954Z,14.81
2018-08-23T16:45:38.567Z,14.99
2018-08-23T16:48:07.288Z,15.51
2018-08-23T16:50:36.387Z,15.63
2018-08-23T16:53:05.047Z,14.76
2018-08-23T16:55:33.646Z,15.68
2018-08-23T16:58:02.255Z,15.77
2018-08-23T17:00:30.939Z,15.88
2018-08-23T17:02:59.574Z,15.91
2018-08-23T17:05:28.170Z,16.40
2018-08-23T17:07:56.766Z,16.97
2018-08-23T17:10:25.788Z,17.08
2018-08-23T17:12:54.441Z,18.42
2018-08-23T17:15:23.143Z,19.48
2018-08-23T17:17:55.621Z,19.74
2018-08-23T17:20:24.260Z,21.53
2018-08-23T17:22:52.865Z,22.47
2018-08-23T17:25:21.567Z,23.14
2018-08-23T17:27:50.149Z,24.24
2018-08-23T17:30:19.411Z,25.05
2018-08-23T17:32:48.494Z,25.34
2018-08-23T17:35:17.120Z,26.23
2018-08-23T17:37:45.735Z,26.61
2018-08-23T17:40:14.436Z,27.69
2018-08-23T17:42:43.562Z,28.26
2018-08-23T17:45:13.402Z,28.11
2018-08-23T17:47:41.967Z,29.11
2018-08-23T17:50:10.649Z,29.55
2018-08-23T17:52:39.282Z,29.52
2018-08-23T17:55:07.906Z,29.83
2018-08-23T17:57:36.488Z,30.34
2018-08-23T18:00:05.642Z,31.13
2018-08-23T18:02:34.319Z,31.54
2018-08-23T18:05:03.130Z,31.91
2018-08-23T18:07:31.822Z,31.82
2018-08-23T18:10:00.429Z,32.04
2018-08-23T18:12:29.055Z,32.88
2018-08-23T18:14:57.689Z,32.58
2018-08-23T18:17:26.330Z,32.79
2018-08-23T18:19:54.930Z,33.12
2018-08-23T18:22:23.692Z,34.08
2018-08-23T18:24:52.296Z,34.17
2018-08-23T18:27:20.929Z,34.35
2018-08-23T18:29:49.536Z,34.34
2018-08-23T18:32:18.319Z,34.80
2018-08-23T18:34:46.788Z,34.45
2018-08-23T18:37:15.393Z,35.06
2018-08-23T18:39:44.037Z,35.59
2018-08-23T18:42:12.812Z,35.78
2018-08-23T18:44:41.470Z,35.98
2018-08-23T18:47:10.558Z,36.53
2018-08-23T18:49:39.186Z,35.99
2018-08-23T18:52:07.843Z,36.82
2018-08-23T18:54:36.448Z,36.41
2018-08-23T18:57:05.224Z,36.71
2018-08-23T18:59:33.861Z,37.20
2018-08-23T19:02:02.908Z,37.44
2018-08-23T19:04:31.558Z,37.81
2018-08-23T19:07:00.232Z,38.06
2018-08-23T19:09:28.914Z,38.04
2018-08-23T19:11:58.053Z,38.50
2018-08-23T19:14:26.643Z,39.03
2018-08-23T19:17:00.582Z,38.65
2018-08-23T19:19:29.211Z,39.48
2018-08-23T19:21:57.862Z,39.64
2018-08-23T19:24:31.654Z,39.79
2018-08-23T19:27:00.324Z,39.48
2018-08-23T19:29:29.005Z,39.77
2018-08-23T19:31:57.671Z,39.87
2018-08-23T19:34:26.449Z,39.75
2018-08-23T19:36:55.180Z,39.86
2018-08-23T19:39:23.894Z,40.10
2018-08-23T19:41:52.554Z,40.20
2018-08-23T19:44:21.189Z,40.89
2018-08-23T19:46:54.994Z,40.44
2018-08-23T19:49:58.413Z,41.07
2018-08-23T19:52:27.206Z,40.85
2018-08-23T19:54:55.866Z,41.20
2018-08-23T19:57:24.521Z,41.36
2018-08-23T19:59:53.146Z,41.54
2018-08-23T20:02:21.753Z,42.18
2018-08-23T20:04:50.462Z,41.87
2018-08-23T20:07:20.831Z,42.75
2018-08-23T20:09:49.533Z,42.56
2018-08-23T20:12:18.340Z,42.72
2018-08-23T20:14:48.099Z,42.90
2018-08-23T20:17:17.447Z,43.18
2018-08-23T20:19:46.116Z,43.46
2018-08-23T20:22:14.905Z,43.25
2018-08-23T20:24:45.128Z,43.94
2018-08-23T20:27:14.268Z,43.34
2018-08-23T20:29:42.992Z,43.54
2018-08-23T20:32:12.079Z,43.92
2018-08-23T20:34:40.798Z,44.48
2018-08-23T20:37:09.512Z,44.71
2018-08-23T20:39:38.204Z,44.45
2018-08-23T20:42:07.432Z,44.68
2018-08-23T20:44:36.114Z,45.06
2018-08-23T20:47:04.889Z,44.79
2018-08-23T20:49:33.513Z,44.55
2018-08-23T20:52:02.295Z,44.55
2018-08-23T20:54:30.988Z,44.36
2018-08-23T20:56:59.685Z,44.64
2018-08-23T20:59:28.326Z,44.14
2018-08-23T21:01:57.015Z,44.60
2018-08-23T21:04:26.173Z,44.07
2018-08-23T21:06:54.876Z,43.99
2018-08-23T21:09:23.669Z,43.92
2018-08-23T21:11:52.479Z,44.06
2018-08-23T21:14:21.207Z,43.95
2018-08-23T21:16:51.428Z,43.84
2018-08-23T21:19:20.162Z,44.42
2018-08-23T21:21:48.973Z,44.34
2018-08-23T21:24:17.763Z,44.26
2018-08-23T21:26:46.547Z,44.43
2018-08-23T21:29:15.281Z,44.03
2018-08-23T21:31:43.962Z,44.42
2018-08-23T21:34:12.669Z,44.26
2018-08-23T21:36:41.323Z,44.28
2018-08-23T21:39:10.437Z,44.27
2018-08-23T21:41:39.165Z,44.09
2018-08-23T21:44:07.755Z,44.69
2018-08-23T21:46:36.483Z,44.49
2018-08-23T21:49:05.206Z,44.50
2018-08-23T21:51:33.826Z,44.64
2018-08-23T21:54:02.497Z,45.17
2018-08-23T21:56:31.142Z,45.25
2018-08-23T21:58:59.728Z,45.89
2018-08-23T22:01:28.350Z,45.92
2018-08-23T22:03:56.981Z,46.33
2018-08-23T22:06:25.579Z,46.16
2018-08-23T22:08:54.220Z,46.20
2018-08-23T22:11:22.853Z,46.53
2018-08-23T22:13:51.468Z,46.67
2018-08-23T22:16:20.097Z,46.56
2018-08-23T22:18:48.837Z,46.93
2018-08-23T22:21:17.431Z,47.11
2018-08-23T22:23:46.077Z,47.39
2018-08-23T22:26:14.753Z,47.22
2018-08-23T22:28:43.392Z,47.70
2018-08-23T22:31:12.052Z,47.20
2018-08-23T22:33:40.939Z,47.20
2018-08-23T22:36:09.622Z,47.65
2018-08-23T22:38:38.263Z,47.17
2018-08-23T22:41:06.905Z,48.00
2018-08-23T22:43:35.513Z,47.71
2018-08-23T22:48:43.272Z,48.13
2018-08-23T22:51:11.921Z,48.29
2018-08-23T22:53:40.607Z,47.81
2018-08-23T22:56:09.212Z,47.86
2018-08-23T22:58:37.903Z,48.40
2018-08-23T23:01:06.547Z,48.23
2018-08-23T23:03:40.370Z,48.72
2018-08-23T23:06:09.026Z,49.02
2018-08-23T23:08:37.622Z,49.74
2018-08-23T23:11:06.509Z,48.86
2018-08-23T23:13:35.133Z,49.14
2018-08-23T23:16:03.730Z,49.29
2018-08-23T23:18:32.340Z,49.46
2018-08-23T23:21:00.956Z,49.61
2018-08-23T23:23:29.545Z,49.79
2018-08-23T23:25:58.171Z,49.84
2018-08-23T23:28:26.806Z,50.54
2018-08-23T23:30:55.464Z,50.75
2018-08-23T23:33:24.071Z,50.42
2018-08-23T23:35:52.689Z,50.91
2018-08-23T23:38:21.333Z,50.98
2018-08-23T23:40:49.913Z,50.96
2018-08-23T23:43:18.505Z,50.58
2018-08-23T23:45:48.005Z,50.49
2018-08-23T23:48:16.650Z,50.98
2018-08-23T23:50:45.367Z,51.60
2018-08-23T23:53:14.022Z,51.47
2018-08-23T23:55:42.637Z,51.49
2018-08-23T23:58:11.364Z,52.21
